Terminal Aerodrome Forecast
Issued by NWS

Home | Current Version | Previous Version | Text Only | Print | Product List | Glossary On
Versions: 1 2 3 4 5 6 7 8 9 10 11 12 13 14 15 16 17
000
FTUS46 KOTX 250537
TAFSFF
TAF
KSFF 250537Z 2506/2606 26005KT P6SM FEW025 BKN250
     FM251100 20010G16KT P6SM FEW020 OVC030
     FM251300 22011G20KT 4SM -SN OVC020
     FM251500 22018G24KT 2SM -SN OVC010
     FM251800 22018G27KT 6SM -SN OVC015
     FM260000 24011G20KT P6SM VCSH SCT015 BKN050 BKN100
     FM260300 23009G15KT P6SM SCT100 BKN150=

USA.gov is the U.S. government's official web portal to all federal, state and local government web resources and services.